createdAt,value
2022-09-21T00:01:46.635Z,13.28
2022-09-21T00:04:20.512Z,13.29
2022-09-21T00:06:53.816Z,13.31
2022-09-21T00:09:27.433Z,13.34
2022-09-21T00:12:01.518Z,13.35
2022-09-21T00:14:38.706Z,13.35
2022-09-21T00:17:11.877Z,13.37
2022-09-21T00:19:45.371Z,13.36
2022-09-21T00:22:18.755Z,13.34
2022-09-21T00:24:52.654Z,13.34
2022-09-21T00:27:30.449Z,13.34
2022-09-21T00:30:06.584Z,13.36
2022-09-21T00:32:41.064Z,13.37
2022-09-21T00:35:15.250Z,13.37
2022-09-21T00:37:52.071Z,13.40
2022-09-21T00:40:25.514Z,13.39
2022-09-21T00:43:18.691Z,13.39
2022-09-21T00:46:00.536Z,13.38
2022-09-21T00:48:35.500Z,13.39
2022-09-21T00:51:11.008Z,13.39
2022-09-21T00:53:44.813Z,13.41
2022-09-21T00:56:20.725Z,13.43
2022-09-21T00:58:59.603Z,13.45
2022-09-21T01:01:33.685Z,13.46
2022-09-21T01:04:07.538Z,13.48
2022-09-21T01:06:42.532Z,13.47
2022-09-21T01:09:16.720Z,13.48
2022-09-21T01:12:04.929Z,13.48
2022-09-21T01:15:02.537Z,13.48
2022-09-21T01:17:44.756Z,13.51
2022-09-21T01:21:02.070Z,13.53
2022-09-21T01:24:12.090Z,13.54
2022-09-21T01:27:28.639Z,13.54
2022-09-21T01:30:05.355Z,13.52
2022-09-21T01:32:44.196Z,13.50
2022-09-21T01:35:22.039Z,13.49
2022-09-21T01:38:03.911Z,13.49
2022-09-21T01:40:39.989Z,13.49
2022-09-21T01:43:20.922Z,13.48
2022-09-21T01:46:02.367Z,13.50
2022-09-21T01:48:41.230Z,13.52
2022-09-21T01:51:15.476Z,13.53
2022-09-21T01:53:54.047Z,13.50
2022-09-21T01:56:34.852Z,13.52
2022-09-21T01:59:12.656Z,13.54
2022-09-21T02:01:51.997Z,13.57
2022-09-21T02:04:25.511Z,13.57
2022-09-21T02:06:58.890Z,13.55
2022-09-21T02:09:33.111Z,13.55
2022-09-21T02:12:07.201Z,13.55
2022-09-21T02:14:41.780Z,13.56
2022-09-21T02:17:29.837Z,13.56
2022-09-21T02:20:11.995Z,13.55
2022-09-21T02:22:59.992Z,13.55
2022-09-21T02:25:41.864Z,13.54
2022-09-21T02:28:29.366Z,13.54
2022-09-21T02:31:14.151Z,13.53
2022-09-21T02:33:59.177Z,13.54
2022-09-21T02:36:39.599Z,13.56
2022-09-21T02:39:17.615Z,13.55
2022-09-21T02:42:03.320Z,13.52
2022-09-21T02:44:40.859Z,13.51
2022-09-21T02:47:20.847Z,13.51
2022-09-21T02:50:00.397Z,13.53
2022-09-21T02:52:36.072Z,13.51
2022-09-21T02:55:10.962Z,13.48
2022-09-21T02:57:44.761Z,13.48
2022-09-21T03:00:19.254Z,13.48
2022-09-21T03:02:55.363Z,13.46
2022-09-21T03:05:30.272Z,13.48
2022-09-21T03:08:03.826Z,13.50
2022-09-21T03:10:40.210Z,13.51
2022-09-21T03:13:14.162Z,13.52
2022-09-21T03:15:48.507Z,13.54
2022-09-21T03:18:22.170Z,13.52
2022-09-21T03:20:55.920Z,13.49
2022-09-21T03:23:29.440Z,13.49
2022-09-21T03:26:02.781Z,13.49
2022-09-21T03:28:36.550Z,13.49
2022-09-21T03:31:10.063Z,13.54
2022-09-21T03:33:43.417Z,13.54
2022-09-21T03:36:17.125Z,13.55
2022-09-21T03:38:50.648Z,13.56
2022-09-21T03:41:24.022Z,13.56
2022-09-21T03:43:57.824Z,13.56
2022-09-21T03:46:31.501Z,13.57
2022-09-21T03:49:05.336Z,13.59
2022-09-21T03:51:39.811Z,13.61
2022-09-21T03:54:13.287Z,13.62
2022-09-21T03:56:46.729Z,13.62
2022-09-21T03:59:20.899Z,13.61
2022-09-21T04:01:54.610Z,13.60
2022-09-21T04:04:28.046Z,13.59
2022-09-21T04:07:01.633Z,13.57
2022-09-21T04:09:34.837Z,13.58
2022-09-21T04:12:08.344Z,13.58
2022-09-21T04:14:41.982Z,13.59
2022-09-21T04:17:15.618Z,13.60
2022-09-21T04:19:49.507Z,13.60
2022-09-21T04:22:25.303Z,13.62
2022-09-21T04:24:58.600Z,13.63
2022-09-21T04:27:32.039Z,13.64
2022-09-21T04:30:06.486Z,13.65
2022-09-21T04:32:40.071Z,13.64
2022-09-21T04:35:13.953Z,13.65
2022-09-21T04:37:48.080Z,13.66
2022-09-21T04:40:23.615Z,13.67
2022-09-21T04:42:57.312Z,13.70
2022-09-21T04:45:30.576Z,13.70
2022-09-21T04:48:03.994Z,13.70
2022-09-21T04:50:39.684Z,13.71
2022-09-21T04:53:15.094Z,13.72
2022-09-21T04:55:48.865Z,13.74
2022-09-21T04:58:24.455Z,13.75
2022-09-21T05:00:58.475Z,13.73
2022-09-21T05:03:32.756Z,13.70
2022-09-21T05:06:06.493Z,13.72
2022-09-21T05:08:57.455Z,13.74
2022-09-21T05:11:30.908Z,13.76
2022-09-21T05:14:04.378Z,13.77
2022-09-21T05:16:38.416Z,13.78
2022-09-21T05:19:12.286Z,13.77
2022-09-21T05:21:46.231Z,13.78
2022-09-21T05:24:20.241Z,13.81
2022-09-21T05:26:54.271Z,13.85
2022-09-21T05:29:28.557Z,13.88
2022-09-21T05:32:10.355Z,13.89
2022-09-21T05:34:53.798Z,13.89
2022-09-21T05:37:50.044Z,13.88
2022-09-21T05:40:24.747Z,13.88
2022-09-21T05:42:59.067Z,13.90
2022-09-21T05:45:33.688Z,13.92
2022-09-21T05:48:18.556Z,13.94
2022-09-21T05:51:01.005Z,13.98
2022-09-21T05:53:47.029Z,14.02
2022-09-21T05:56:39.606Z,14.04
2022-09-21T05:59:32.887Z,14.07
2022-09-21T06:02:26.607Z,14.11
2022-09-21T06:05:03.277Z,14.13
2022-09-21T06:07:37.403Z,14.14
2022-09-21T06:10:13.938Z,14.16
2022-09-21T06:12:47.689Z,14.19
2022-09-21T06:15:24.570Z,14.21
2022-09-21T06:17:59.362Z,14.23
2022-09-21T06:20:33.390Z,14.18
2022-09-21T06:23:08.402Z,14.17
2022-09-21T06:25:42.271Z,14.16
2022-09-21T06:28:16.093Z,14.17
2022-09-21T06:30:54.327Z,14.20
2022-09-21T06:33:27.936Z,14.21
2022-09-21T06:36:02.137Z,14.22
2022-09-21T06:38:37.198Z,14.29
2022-09-21T06:41:10.390Z,14.38
2022-09-21T06:43:44.016Z,14.43
2022-09-21T06:46:18.005Z,14.55
2022-09-21T06:48:52.257Z,14.81
2022-09-21T06:51:25.754Z,14.91
2022-09-21T06:54:02.648Z,14.88
2022-09-21T06:56:35.988Z,14.89
2022-09-21T06:59:09.812Z,14.97
2022-09-21T07:01:43.385Z,15.07
2022-09-21T07:04:17.922Z,15.05
2022-09-21T07:06:53.324Z,15.09
2022-09-21T07:12:20.564Z,15.48
2022-09-21T07:14:54.281Z,15.50
2022-09-21T07:17:27.743Z,15.73
2022-09-21T07:20:01.112Z,15.79
2022-09-21T07:22:34.967Z,15.73
2022-09-21T07:25:10.622Z,15.67
2022-09-21T07:27:55.559Z,15.65
2022-09-21T07:30:29.726Z,15.78
2022-09-21T07:33:03.318Z,15.81
2022-09-21T07:35:37.422Z,15.85
2022-09-21T07:38:14.519Z,15.95
2022-09-21T07:40:48.148Z,17.10
2022-09-21T07:43:21.732Z,18.81
2022-09-21T07:45:58.438Z,21.31
2022-09-21T07:48:32.479Z,23.81
2022-09-21T07:51:07.505Z,24.78
2022-09-21T07:53:45.931Z,24.32
2022-09-21T07:56:20.489Z,23.59
2022-09-21T07:59:08.957Z,22.66
2022-09-21T08:01:43.784Z,21.86
2022-09-21T08:04:17.273Z,21.23
2022-09-21T08:06:50.819Z,20.63
2022-09-21T08:09:26.900Z,20.31
2022-09-21T08:12:11.536Z,20.46
2022-09-21T08:14:44.975Z,20.62
2022-09-21T08:17:21.527Z,20.54
2022-09-21T08:19:55.661Z,20.30
2022-09-21T08:22:32.090Z,20.15
2022-09-21T08:25:06.251Z,20.12
2022-09-21T08:27:40.901Z,19.97
2022-09-21T08:30:15.460Z,19.71
2022-09-21T08:32:51.856Z,19.49
2022-09-21T08:35:25.763Z,19.25
2022-09-21T08:38:19.391Z,18.98
2022-09-21T08:40:53.733Z,18.82
2022-09-21T08:43:37.723Z,18.68
2022-09-21T08:46:15.611Z,18.60
2022-09-21T08:48:52.720Z,18.51
2022-09-21T08:51:30.070Z,18.38
2022-09-21T08:54:17.123Z,18.15
2022-09-21T08:57:04.914Z,17.97
2022-09-21T08:59:43.616Z,17.81
2022-09-21T09:02:40.492Z,17.68
2022-09-21T09:05:35.094Z,17.62
2022-09-21T09:08:58.016Z,17.59
2022-09-21T09:11:56.745Z,17.61
2022-09-21T09:15:21.976Z,17.57
2022-09-21T09:18:02.288Z,17.50
2022-09-21T09:20:51.370Z,17.38
2022-09-21T09:23:43.487Z,17.39
2022-09-21T09:26:24.051Z,17.46
2022-09-21T09:29:00.932Z,17.52
2022-09-21T09:31:36.369Z,17.49
2022-09-21T09:34:17.861Z,17.41
2022-09-21T09:36:59.619Z,17.33
2022-09-21T09:39:45.629Z,17.23
2022-09-21T09:42:40.133Z,17.16
2022-09-21T09:45:33.795Z,17.35
2022-09-21T09:48:18.970Z,18.14
2022-09-21T09:50:56.171Z,18.52
2022-09-21T09:53:30.569Z,18.50
2022-09-21T09:56:04.225Z,18.33
2022-09-21T09:58:46.712Z,18.20
2022-09-21T10:01:43.720Z,18.06
2022-09-21T10:04:21.216Z,17.96
2022-09-21T10:06:55.359Z,17.94
2022-09-21T10:09:31.350Z,17.95
2022-09-21T10:12:21.047Z,17.88
2022-09-21T10:15:01.957Z,17.92
2022-09-21T10:18:06.405Z,17.99
2022-09-21T10:20:39.917Z,18.09
2022-09-21T10:23:16.124Z,18.20
2022-09-21T10:25:58.813Z,18.27
2022-09-21T10:28:33.131Z,18.37
2022-09-21T10:31:22.676Z,18.42
2022-09-21T10:34:08.088Z,18.43
2022-09-21T10:36:43.421Z,18.60
2022-09-21T10:39:25.287Z,18.55
2022-09-21T10:42:03.462Z,18.44
2022-09-21T10:44:43.608Z,18.34
2022-09-21T10:47:27.272Z,18.28
2022-09-21T10:50:02.983Z,18.20
2022-09-21T10:52:40.409Z,18.11
2022-09-21T10:55:22.489Z,18.14
2022-09-21T10:57:56.963Z,18.30
2022-09-21T11:00:45.407Z,18.43
2022-09-21T11:03:49.855Z,18.62
2022-09-21T11:06:28.987Z,18.94
2022-09-21T11:09:09.080Z,19.26
2022-09-21T11:11:53.510Z,19.53
2022-09-21T11:14:43.259Z,19.64
2022-09-21T11:17:43.447Z,19.58
2022-09-21T11:20:26.884Z,19.64
2022-09-21T11:23:07.029Z,19.62
2022-09-21T11:25:50.169Z,19.59
2022-09-21T11:28:28.532Z,19.56
2022-09-21T11:31:16.988Z,19.40
2022-09-21T11:34:16.627Z,19.22
2022-09-21T11:37:06.592Z,19.06
2022-09-21T11:39:51.220Z,18.94
2022-09-21T11:42:41.638Z,18.90
2022-09-21T11:45:34.099Z,18.97
2022-09-21T11:48:21.812Z,19.10
2022-09-21T11:51:10.522Z,19.11
2022-09-21T11:54:04.141Z,19.01
2022-09-21T11:56:47.364Z,18.93
2022-09-21T11:59:41.032Z,18.97
2022-09-21T12:02:37.923Z,19.09
2022-09-21T12:05:21.702Z,19.27
2022-09-21T12:08:22.944Z,19.37
2022-09-21T12:11:01.865Z,19.43
2022-09-21T12:13:41.455Z,19.52
2022-09-21T12:16:24.119Z,19.61
2022-09-21T12:19:07.390Z,19.68
2022-09-21T12:21:46.121Z,19.87
2022-09-21T12:24:22.279Z,19.96
2022-09-21T12:26:58.880Z,19.94
2022-09-21T12:29:38.487Z,19.92
2022-09-21T12:32:23.595Z,19.91
2022-09-21T12:35:02.462Z,19.89
2022-09-21T12:37:40.429Z,20.04
2022-09-21T12:40:21.758Z,20.23
2022-09-21T12:43:02.595Z,20.17
2022-09-21T12:45:38.935Z,20.07
2022-09-21T12:48:22.974Z,19.95
2022-09-21T12:51:05.834Z,19.71
2022-09-21T12:53:42.247Z,19.50
2022-09-21T12:56:22.891Z,19.38
2022-09-21T12:59:10.412Z,19.28
2022-09-21T13:01:53.403Z,19.16
2022-09-21T13:04:43.594Z,19.01
2022-09-21T13:07:53.357Z,18.73
2022-09-21T13:10:40.705Z,18.35
2022-09-21T13:13:24.878Z,18.10
2022-09-21T13:16:00.020Z,17.88
2022-09-21T13:18:36.804Z,17.73
2022-09-21T13:21:22.562Z,17.59
2022-09-21T13:24:02.625Z,17.49
2022-09-21T13:26:43.851Z,17.38
2022-09-21T13:29:49.011Z,17.31
2022-09-21T13:32:47.473Z,17.35
2022-09-21T13:35:53.308Z,17.68
2022-09-21T13:38:34.476Z,18.28
2022-09-21T13:41:51.695Z,18.62
2022-09-21T13:44:41.703Z,18.67
2022-09-21T13:47:15.447Z,18.61
2022-09-21T13:49:56.025Z,18.57
2022-09-21T13:52:39.766Z,18.52
2022-09-21T13:55:29.798Z,18.49
2022-09-21T13:58:06.835Z,18.41
2022-09-21T14:00:45.232Z,18.33
2022-09-21T14:03:31.294Z,18.26
2022-09-21T14:06:10.713Z,18.20
2022-09-21T14:08:53.538Z,18.18
2022-09-21T14:11:34.015Z,18.21
2022-09-21T14:14:21.332Z,18.22
2022-09-21T14:17:02.749Z,18.22
2022-09-21T14:20:30.786Z,18.24
2022-09-21T14:23:31.455Z,18.23
2022-09-21T14:26:20.875Z,18.18
2022-09-21T14:28:55.498Z,18.17
2022-09-21T14:31:34.731Z,18.13
2022-09-21T14:34:14.421Z,18.12
2022-09-21T14:36:51.677Z,18.12
2022-09-21T14:39:32.475Z,18.08
2022-09-21T14:42:19.842Z,18.08
2022-09-21T14:44:53.755Z,18.04
2022-09-21T14:47:55.925Z,18.01
2022-09-21T14:50:36.421Z,17.97
2022-09-21T14:53:57.067Z,17.95
2022-09-21T14:56:44.860Z,17.93
2022-09-21T14:59:32.622Z,17.90
2022-09-21T15:02:15.816Z,17.89
2022-09-21T15:05:06.210Z,17.88
2022-09-21T15:08:24.025Z,17.85
2022-09-21T15:11:09.104Z,17.82
2022-09-21T15:14:17.356Z,17.82
2022-09-21T15:16:51.380Z,17.79
2022-09-21T15:19:28.982Z,17.73
2022-09-21T15:22:19.065Z,17.68
2022-09-21T15:24:57.492Z,17.64
2022-09-21T15:27:33.836Z,17.59
2022-09-21T15:30:20.752Z,17.53
2022-09-21T15:32:58.114Z,17.46
2022-09-21T15:35:33.696Z,17.38
2022-09-21T15:38:20.916Z,17.31
2022-09-21T15:40:54.532Z,17.25
2022-09-21T15:43:28.170Z,17.19
2022-09-21T15:46:03.890Z,17.13
2022-09-21T15:48:42.567Z,17.07
2022-09-21T15:51:25.099Z,17.01
2022-09-21T15:54:05.406Z,16.95
2022-09-21T15:56:44.259Z,16.91
2022-09-21T15:59:21.728Z,16.89
2022-09-21T16:01:59.182Z,16.88
2022-09-21T16:04:34.242Z,16.80
2022-09-21T16:07:26.407Z,16.74
2022-09-21T16:09:59.719Z,16.69
2022-09-21T16:12:42.054Z,16.63
2022-09-21T16:15:29.519Z,16.58
2022-09-21T16:18:05.715Z,16.51
2022-09-21T16:20:46.061Z,16.41
2022-09-21T16:23:23.771Z,16.32
2022-09-21T16:26:02.731Z,16.26
2022-09-21T16:28:42.541Z,16.21
2022-09-21T16:31:39.512Z,16.17
2022-09-21T16:34:33.487Z,16.14
2022-09-21T16:37:28.531Z,16.09
2022-09-21T16:40:02.683Z,16.04
2022-09-21T16:42:36.657Z,15.97
2022-09-21T16:45:31.725Z,15.92
2022-09-21T16:48:08.319Z,15.85
2022-09-21T16:50:43.579Z,15.79
2022-09-21T16:53:19.702Z,15.73
2022-09-21T16:55:54.375Z,15.69
2022-09-21T16:58:28.015Z,15.63
2022-09-21T17:01:03.207Z,15.59
2022-09-21T17:03:36.439Z,15.57
2022-09-21T17:06:15.761Z,15.56
2022-09-21T17:08:50.652Z,15.55
2022-09-21T17:11:25.168Z,15.54
2022-09-21T17:14:01.734Z,15.50
2022-09-21T17:16:35.171Z,15.46
2022-09-21T17:19:10.542Z,15.43
2022-09-21T17:21:45.831Z,15.39
2022-09-21T17:24:45.850Z,15.36
2022-09-21T17:27:14.069Z,15.33
2022-09-21T17:29:48.258Z,15.31
2022-09-21T17:32:23.528Z,15.31
2022-09-21T17:35:00.422Z,15.29
2022-09-21T17:37:34.221Z,15.28
2022-09-21T17:40:13.797Z,15.26
2022-09-21T17:42:48.757Z,15.22
2022-09-21T17:45:28.566Z,15.19
2022-09-21T17:48:03.598Z,15.17
2022-09-21T17:50:37.897Z,15.13
2022-09-21T17:53:30.520Z,15.12
2022-09-21T17:56:20.888Z,15.10
2022-09-21T17:59:29.641Z,15.09
2022-09-21T18:02:01.881Z,15.09
2022-09-21T18:04:37.763Z,15.06
2022-09-21T18:07:12.611Z,15.04
2022-09-21T18:09:48.384Z,15.04
2022-09-21T18:12:50.770Z,15.02
2022-09-21T18:15:33.622Z,14.98
2022-09-21T18:18:18.288Z,14.97
2022-09-21T18:21:02.607Z,14.96
2022-09-21T18:23:48.603Z,14.97
2022-09-21T18:26:23.786Z,14.98
2022-09-21T18:28:58.770Z,14.98
2022-09-21T18:31:51.712Z,14.97
2022-09-21T18:34:43.891Z,14.96
2022-09-21T18:37:25.853Z,14.92
2022-09-21T18:40:10.183Z,14.91
2022-09-21T18:42:54.400Z,14.88
2022-09-21T18:45:33.464Z,14.86
2022-09-21T18:48:23.017Z,14.85
2022-09-21T18:51:07.288Z,14.85
2022-09-21T18:53:48.130Z,14.82
2022-09-21T18:56:25.755Z,14.78
2022-09-21T18:59:01.302Z,14.76
2022-09-21T19:01:36.542Z,14.73
2022-09-21T19:04:11.941Z,14.71
2022-09-21T19:06:53.107Z,14.68
2022-09-21T19:09:41.958Z,14.68
2022-09-21T19:12:26.467Z,14.69
2022-09-21T19:15:17.376Z,14.70
2022-09-21T19:18:05.940Z,14.69
2022-09-21T19:20:57.650Z,14.66
2022-09-21T19:23:45.951Z,14.65
2022-09-21T19:26:26.025Z,14.61
2022-09-21T19:29:28.316Z,14.58
2022-09-21T19:32:03.758Z,14.55
2022-09-21T19:34:40.296Z,14.55
2022-09-21T19:37:14.227Z,14.56
2022-09-21T19:39:52.260Z,14.57
2022-09-21T19:42:35.203Z,14.58
2022-09-21T19:45:23.927Z,14.57
2022-09-21T19:48:05.299Z,14.55
2022-09-21T19:50:47.160Z,14.51
2022-09-21T19:53:38.895Z,14.52
2022-09-21T19:56:34.608Z,14.51
2022-09-21T19:59:27.808Z,14.51
2022-09-21T20:02:05.091Z,14.52
2022-09-21T20:04:46.388Z,14.50
2022-09-21T20:07:29.891Z,14.48
2022-09-21T20:10:17.225Z,14.46
2022-09-21T20:12:59.840Z,14.45
2022-09-21T20:15:41.405Z,14.44
2022-09-21T20:18:24.155Z,14.45
2022-09-21T20:20:58.909Z,14.45
2022-09-21T20:23:36.601Z,14.44
2022-09-21T20:26:24.233Z,14.44
2022-09-21T20:28:58.757Z,14.42
2022-09-21T20:31:32.247Z,14.42
2022-09-21T20:34:06.342Z,14.45
2022-09-21T20:36:40.202Z,14.49
2022-09-21T20:39:15.393Z,14.48
2022-09-21T20:41:49.254Z,14.46
2022-09-21T20:44:22.855Z,14.44
2022-09-21T20:46:56.234Z,14.42
2022-09-21T20:49:29.570Z,14.41
2022-09-21T20:52:03.944Z,14.39
2022-09-21T20:54:37.983Z,14.38
2022-09-21T20:57:12.252Z,14.36
2022-09-21T20:59:46.170Z,14.33
2022-09-21T21:02:19.635Z,14.30
2022-09-21T21:04:53.194Z,14.26
2022-09-21T21:07:30.404Z,14.22
2022-09-21T21:10:05.222Z,14.18
2022-09-21T21:12:39.211Z,14.15
2022-09-21T21:15:22.817Z,14.13
2022-09-21T21:17:56.545Z,14.12
2022-09-21T21:20:31.309Z,14.12
2022-09-21T21:23:08.026Z,14.10
2022-09-21T21:25:42.234Z,14.05
2022-09-21T21:28:15.336Z,14.02
2022-09-21T21:30:53.488Z,13.99
2022-09-21T21:33:26.878Z,13.95
2022-09-21T21:36:08.461Z,13.90
2022-09-21T21:38:43.626Z,13.87
2022-09-21T21:41:17.774Z,13.85
2022-09-21T21:43:51.531Z,13.83
2022-09-21T21:46:25.228Z,13.80
2022-09-21T21:48:58.861Z,13.77
2022-09-21T21:51:32.812Z,13.75
2022-09-21T21:54:06.579Z,13.69
2022-09-21T21:56:40.242Z,13.63
2022-09-21T21:59:17.568Z,13.57
2022-09-21T22:01:51.794Z,13.54
2022-09-21T22:04:27.821Z,13.52
2022-09-21T22:07:01.633Z,13.51
2022-09-21T22:09:34.860Z,13.50
2022-09-21T22:12:08.733Z,13.51
2022-09-21T22:14:41.803Z,13.50
2022-09-21T22:17:15.847Z,13.49
2022-09-21T22:19:49.864Z,13.49
2022-09-21T22:22:23.063Z,13.50
2022-09-21T22:24:56.877Z,13.51
2022-09-21T22:27:30.343Z,13.52
2022-09-21T22:30:03.696Z,13.56
2022-09-21T22:32:37.411Z,13.57
2022-09-21T22:35:11.866Z,13.57
2022-09-21T22:37:45.126Z,13.57
2022-09-21T22:40:18.629Z,13.55
2022-09-21T22:42:52.571Z,13.54
2022-09-21T22:45:26.645Z,13.53
2022-09-21T22:47:59.915Z,13.56
2022-09-21T22:50:33.683Z,13.56
2022-09-21T22:53:10.737Z,13.58
2022-09-21T22:55:44.933Z,13.57
2022-09-21T22:58:18.727Z,13.55
2022-09-21T23:00:52.684Z,13.53
2022-09-21T23:03:26.336Z,13.52
2022-09-21T23:06:01.725Z,13.50
2022-09-21T23:08:35.931Z,13.47
2022-09-21T23:11:14.271Z,13.45
2022-09-21T23:13:48.230Z,13.42
2022-09-21T23:16:23.057Z,13.39
2022-09-21T23:18:58.172Z,13.35
2022-09-21T23:21:33.296Z,13.31
2022-09-21T23:24:07.192Z,13.30
2022-09-21T23:26:41.046Z,13.29
2022-09-21T23:29:16.705Z,13.30
2022-09-21T23:31:50.063Z,13.30
2022-09-21T23:34:23.700Z,13.29
2022-09-21T23:36:57.053Z,13.28
2022-09-21T23:39:30.733Z,13.28
2022-09-21T23:42:03.901Z,13.24
2022-09-21T23:44:37.555Z,13.19
2022-09-21T23:47:10.903Z,13.15
2022-09-21T23:49:44.233Z,13.14
2022-09-21T23:52:18.489Z,13.13
2022-09-21T23:54:51.447Z,13.11
2022-09-21T23:57:25.508Z,13.09
2022-09-21T23:59:58.898Z,13.07
